Lecanto, Florida
Current Conditions -  °F | °C
As of 9:15 PM on Monday 22 Dec 2014 (Local Time) from KCGC Reporting Station
Broken Clouds Broken Clouds  
Wind Chill: 72°   Ceiling: 1700
Heat Index: 72°   Visibility: 10mi
Dew Point: 68°   Wind: 0mph
Humidity: 88%   Direction: NA
Pressure: 29.93"   Gusts: NA
Location:  28.86°N, 82.49°W
Report Text: KCGC 230215Z AUTO 00000KT 10SM BKN017 BKN033 22/20 A2993 RMK AO2
Loading
Personal Weather Stations






























Interactive Weather Map New forecast layout! Learn more

10-Day Weather Forecast

Advertisements
Track Severe Weather on mobile